sensor_id;sensor_type;location;lat;lon;timestamp;temperature;humidity
19192;DHT22;9728;48.194;16.346;2022-08-05T00:01:31;32.80;28.80
19192;DHT22;9728;48.194;16.346;2022-08-05T00:06:37;32.80;29.00
19192;DHT22;9728;48.194;16.346;2022-08-05T00:11:40;32.70;29.00
19192;DHT22;9728;48.194;16.346;2022-08-05T00:16:51;32.60;29.00
19192;DHT22;9728;48.194;16.346;2022-08-05T00:21:54;32.60;29.10
19192;DHT22;9728;48.194;16.346;2022-08-05T00:26:58;32.60;29.10
19192;DHT22;9728;48.194;16.346;2022-08-05T00:32:08;32.50;29.20
19192;DHT22;9728;48.194;16.346;2022-08-05T00:37:16;32.50;29.50
19192;DHT22;9728;48.194;16.346;2022-08-05T00:42:29;32.40;29.30
19192;DHT22;9728;48.194;16.346;2022-08-05T00:47:35;32.40;29.70
19192;DHT22;9728;48.194;16.346;2022-08-05T00:52:58;32.30;29.50
19192;DHT22;9728;48.194;16.346;2022-08-05T00:58:02;32.20;29.50
19192;DHT22;9728;48.194;16.346;2022-08-05T01:03:07;32.20;29.60
19192;DHT22;9728;48.194;16.346;2022-08-05T01:08:23;32.10;29.80
19192;DHT22;9728;48.194;16.346;2022-08-05T01:13:55;32.10;29.70
19192;DHT22;9728;48.194;16.346;2022-08-05T01:19:10;32.00;30.10
19192;DHT22;9728;48.194;16.346;2022-08-05T01:24:30;32.00;30.20
19192;DHT22;9728;48.194;16.346;2022-08-05T01:29:41;32.00;30.20
19192;DHT22;9728;48.194;16.346;2022-08-05T01:34:51;31.90;30.20
19192;DHT22;9728;48.194;16.346;2022-08-05T01:39:57;31.80;30.20
19192;DHT22;9728;48.194;16.346;2022-08-05T01:45:05;31.80;30.20
19192;DHT22;9728;48.194;16.346;2022-08-05T01:50:15;31.80;30.50
19192;DHT22;9728;48.194;16.346;2022-08-05T01:55:32;31.70;30.50
19192;DHT22;9728;48.194;16.346;2022-08-05T02:00:41;31.70;30.70
19192;DHT22;9728;48.194;16.346;2022-08-05T02:05:46;31.60;31.00
19192;DHT22;9728;48.194;16.346;2022-08-05T02:10:58;31.60;30.70
19192;DHT22;9728;48.194;16.346;2022-08-05T02:16:14;31.60;31.10
19192;DHT22;9728;48.194;16.346;2022-08-05T02:21:29;31.50;31.50
19192;DHT22;9728;48.194;16.346;2022-08-05T02:26:46;31.50;31.30
19192;DHT22;9728;48.194;16.346;2022-08-05T02:31:56;31.40;31.20
19192;DHT22;9728;48.194;16.346;2022-08-05T02:37:08;31.40;31.50
19192;DHT22;9728;48.194;16.346;2022-08-05T02:42:12;31.40;31.80
19192;DHT22;9728;48.194;16.346;2022-08-05T02:47:29;31.40;31.60
19192;DHT22;9728;48.194;16.346;2022-08-05T02:52:53;31.30;31.90
19192;DHT22;9728;48.194;16.346;2022-08-05T02:57:57;31.30;31.80
19192;DHT22;9728;48.194;16.346;2022-08-05T03:03:15;31.20;31.90
19192;DHT22;9728;48.194;16.346;2022-08-05T03:08:24;31.20;32.20
19192;DHT22;9728;48.194;16.346;2022-08-05T03:13:30;31.20;32.00
19192;DHT22;9728;48.194;16.346;2022-08-05T03:18:55;31.10;32.00
19192;DHT22;9728;48.194;16.346;2022-08-05T03:23:59;31.10;32.20
19192;DHT22;9728;48.194;16.346;2022-08-05T03:29:03;31.10;32.10
19192;DHT22;9728;48.194;16.346;2022-08-05T03:34:14;31.10;32.20
19192;DHT22;9728;48.194;16.346;2022-08-05T03:39:18;31.00;32.20
19192;DHT22;9728;48.194;16.346;2022-08-05T03:44:28;31.00;32.20
19192;DHT22;9728;48.194;16.346;2022-08-05T03:49:35;31.00;32.10
19192;DHT22;9728;48.194;16.346;2022-08-05T03:54:56;30.90;32.20
19192;DHT22;9728;48.194;16.346;2022-08-05T04:00:20;30.90;32.20
19192;DHT22;9728;48.194;16.346;2022-08-05T04:05:31;30.90;32.20
19192;DHT22;9728;48.194;16.346;2022-08-05T04:10:36;30.80;32.20
19192;DHT22;9728;48.194;16.346;2022-08-05T04:15:40;30.80;32.10
19192;DHT22;9728;48.194;16.346;2022-08-05T04:21:05;30.80;32.00
19192;DHT22;9728;48.194;16.346;2022-08-05T04:26:12;30.80;32.20
19192;DHT22;9728;48.194;16.346;2022-08-05T04:31:18;30.80;32.40
19192;DHT22;9728;48.194;16.346;2022-08-05T04:36:23;30.70;32.20
19192;DHT22;9728;48.194;16.346;2022-08-05T04:41:47;30.70;32.30
19192;DHT22;9728;48.194;16.346;2022-08-05T04:46:52;30.70;32.30
19192;DHT22;9728;48.194;16.346;2022-08-05T04:51:56;30.80;32.40
19192;DHT22;9728;48.194;16.346;2022-08-05T04:57:01;30.70;32.50
19192;DHT22;9728;48.194;16.346;2022-08-05T05:02:06;30.70;32.60
19192;DHT22;9728;48.194;16.346;2022-08-05T05:07:31;30.70;32.50
19192;DHT22;9728;48.194;16.346;2022-08-05T05:12:36;30.80;32.70
19192;DHT22;9728;48.194;16.346;2022-08-05T05:17:41;30.80;32.80
19192;DHT22;9728;48.194;16.346;2022-08-05T05:23:01;30.80;32.80
19192;DHT22;9728;48.194;16.346;2022-08-05T05:28:09;30.80;32.90
19192;DHT22;9728;48.194;16.346;2022-08-05T05:33:13;30.80;32.80
19192;DHT22;9728;48.194;16.346;2022-08-05T05:38:20;30.90;32.80
19192;DHT22;9728;48.194;16.346;2022-08-05T05:43:28;30.90;32.80
19192;DHT22;9728;48.194;16.346;2022-08-05T05:48:51;31.00;32.80
19192;DHT22;9728;48.194;16.346;2022-08-05T05:53:56;31.10;32.80
19192;DHT22;9728;48.194;16.346;2022-08-05T05:59:01;31.10;32.80
19192;DHT22;9728;48.194;16.346;2022-08-05T06:04:07;31.20;32.90
19192;DHT22;9728;48.194;16.346;2022-08-05T06:09:15;31.20;32.90
19192;DHT22;9728;48.194;16.346;2022-08-05T06:14:28;31.20;32.90
19192;DHT22;9728;48.194;16.346;2022-08-05T06:19:32;31.30;32.90
19192;DHT22;9728;48.194;16.346;2022-08-05T06:24:41;31.30;32.90
19192;DHT22;9728;48.194;16.346;2022-08-05T06:29:49;31.40;33.00
19192;DHT22;9728;48.194;16.346;2022-08-05T06:35:12;31.40;32.90
19192;DHT22;9728;48.194;16.346;2022-08-05T06:40:37;31.50;32.90
19192;DHT22;9728;48.194;16.346;2022-08-05T06:45:45;31.50;33.00
19192;DHT22;9728;48.194;16.346;2022-08-05T06:51:07;31.50;33.00
19192;DHT22;9728;48.194;16.346;2022-08-05T06:56:26;31.60;33.00
19192;DHT22;9728;48.194;16.346;2022-08-05T07:01:30;31.70;33.20
19192;DHT22;9728;48.194;16.346;2022-08-05T07:06:34;31.70;33.20
19192;DHT22;9728;48.194;16.346;2022-08-05T07:11:38;31.80;33.10
19192;DHT22;9728;48.194;16.346;2022-08-05T07:16:42;31.90;33.20
19192;DHT22;9728;48.194;16.346;2022-08-05T07:22:11;32.00;33.20
19192;DHT22;9728;48.194;16.346;2022-08-05T07:27:18;32.20;33.10
19192;DHT22;9728;48.194;16.346;2022-08-05T07:32:22;32.20;33.10
19192;DHT22;9728;48.194;16.346;2022-08-05T07:37:27;32.30;33.00
19192;DHT22;9728;48.194;16.346;2022-08-05T07:42:39;32.50;33.00
19192;DHT22;9728;48.194;16.346;2022-08-05T07:47:44;32.50;33.00
19192;DHT22;9728;48.194;16.346;2022-08-05T07:52:48;32.70;33.00
19192;DHT22;9728;48.194;16.346;2022-08-05T07:57:52;32.80;32.90
19192;DHT22;9728;48.194;16.346;2022-08-05T08:03:09;32.90;32.80
19192;DHT22;9728;48.194;16.346;2022-08-05T08:08:17;33.10;32.70
19192;DHT22;9728;48.194;16.346;2022-08-05T08:13:22;33.30;32.70
19192;DHT22;9728;48.194;16.346;2022-08-05T08:18:30;33.50;32.70
19192;DHT22;9728;48.194;16.346;2022-08-05T08:23:33;33.60;32.40
19192;DHT22;9728;48.194;16.346;2022-08-05T08:28:59;33.80;32.30
19192;DHT22;9728;48.194;16.346;2022-08-05T08:34:24;34.00;32.10
19192;DHT22;9728;48.194;16.346;2022-08-05T08:39:33;34.20;32.00
19192;DHT22;9728;48.194;16.346;2022-08-05T08:44:41;34.40;31.90
19192;DHT22;9728;48.194;16.346;2022-08-05T08:50:05;34.60;31.70
19192;DHT22;9728;48.194;16.346;2022-08-05T08:55:30;34.80;31.70
19192;DHT22;9728;48.194;16.346;2022-08-05T09:00:54;35.00;31.50
19192;DHT22;9728;48.194;16.346;2022-08-05T09:05:58;35.20;31.30
19192;DHT22;9728;48.194;16.346;2022-08-05T09:11:12;35.50;31.10
19192;DHT22;9728;48.194;16.346;2022-08-05T09:16:18;35.60;31.60
19192;DHT22;9728;48.194;16.346;2022-08-05T09:21:27;35.80;30.60
19192;DHT22;9728;48.194;16.346;2022-08-05T09:26:52;36.10;30.50
19192;DHT22;9728;48.194;16.346;2022-08-05T09:32:06;36.20;30.30
19192;DHT22;9728;48.194;16.346;2022-08-05T09:37:29;36.50;30.10
19192;DHT22;9728;48.194;16.346;2022-08-05T09:42:53;36.70;30.10
19192;DHT22;9728;48.194;16.346;2022-08-05T09:47:58;36.90;30.50
19192;DHT22;9728;48.194;16.346;2022-08-05T09:53:01;37.10;29.80
19192;DHT22;9728;48.194;16.346;2022-08-05T09:58:09;37.30;29.70
19192;DHT22;9728;48.194;16.346;2022-08-05T10:03:14;37.50;29.50
19192;DHT22;9728;48.194;16.346;2022-08-05T10:08:24;37.80;29.50
19192;DHT22;9728;48.194;16.346;2022-08-05T10:13:39;38.00;29.30
19192;DHT22;9728;48.194;16.346;2022-08-05T10:18:50;38.30;29.40
19192;DHT22;9728;48.194;16.346;2022-08-05T10:23:54;38.50;29.00
19192;DHT22;9728;48.194;16.346;2022-08-05T10:29:01;38.80;28.80
19192;DHT22;9728;48.194;16.346;2022-08-05T10:34:07;39.10;28.70
19192;DHT22;9728;48.194;16.346;2022-08-05T10:39:15;39.30;28.40
19192;DHT22;9728;48.194;16.346;2022-08-05T10:44:43;39.60;28.10
19192;DHT22;9728;48.194;16.346;2022-08-05T10:50:03;39.80;28.20
19192;DHT22;9728;48.194;16.346;2022-08-05T10:55:28;40.00;27.30
19192;DHT22;9728;48.194;16.346;2022-08-05T11:00:44;40.30;27.60
19192;DHT22;9728;48.194;16.346;2022-08-05T11:06:05;40.50;27.20
19192;DHT22;9728;48.194;16.346;2022-08-05T11:11:32;40.70;26.90
19192;DHT22;9728;48.194;16.346;2022-08-05T11:17:24;41.00;26.40
19192;DHT22;9728;48.194;16.346;2022-08-05T11:22:51;41.20;26.30
19192;DHT22;9728;48.194;16.346;2022-08-05T11:33:53;41.60;25.90
19192;DHT22;9728;48.194;16.346;2022-08-05T11:39:00;41.80;25.60
19192;DHT22;9728;48.194;16.346;2022-08-05T11:44:06;42.00;25.70
19192;DHT22;9728;48.194;16.346;2022-08-05T11:49:13;42.10;25.60
19192;DHT22;9728;48.194;16.346;2022-08-05T11:54:23;42.20;25.50
19192;DHT22;9728;48.194;16.346;2022-08-05T11:59:35;42.30;24.80
19192;DHT22;9728;48.194;16.346;2022-08-05T12:04:50;42.50;25.60
19192;DHT22;9728;48.194;16.346;2022-08-05T12:10:03;42.50;25.00
19192;DHT22;9728;48.194;16.346;2022-08-05T12:15:18;42.60;24.70
19192;DHT22;9728;48.194;16.346;2022-08-05T12:20:39;42.70;24.40
19192;DHT22;9728;48.194;16.346;2022-08-05T12:25:51;42.70;24.70
19192;DHT22;9728;48.194;16.346;2022-08-05T12:30:58;42.80;24.10
19192;DHT22;9728;48.194;16.346;2022-08-05T12:36:05;42.80;24.50
19192;DHT22;9728;48.194;16.346;2022-08-05T12:41:13;42.90;24.40
19192;DHT22;9728;48.194;16.346;2022-08-05T12:46:23;42.90;24.20
19192;DHT22;9728;48.194;16.346;2022-08-05T12:51:30;43.00;22.90
19192;DHT22;9728;48.194;16.346;2022-08-05T12:56:58;43.10;22.80
19192;DHT22;9728;48.194;16.346;2022-08-05T13:02:03;43.10;22.60
19192;DHT22;9728;48.194;16.346;2022-08-05T13:07:12;43.20;22.70
19192;DHT22;9728;48.194;16.346;2022-08-05T13:12:21;43.20;22.70
19192;DHT22;9728;48.194;16.346;2022-08-05T13:17:30;43.30;22.40
19192;DHT22;9728;48.194;16.346;2022-08-05T13:22:48;43.40;22.20
19192;DHT22;9728;48.194;16.346;2022-08-05T13:27:54;43.40;21.80
19192;DHT22;9728;48.194;16.346;2022-08-05T13:32:58;43.40;21.90
19192;DHT22;9728;48.194;16.346;2022-08-05T13:38:03;43.50;22.10
19192;DHT22;9728;48.194;16.346;2022-08-05T13:43:08;43.60;22.00
19192;DHT22;9728;48.194;16.346;2022-08-05T13:48:13;43.50;21.90
19192;DHT22;9728;48.194;16.346;2022-08-05T13:53:36;43.60;21.90
19192;DHT22;9728;48.194;16.346;2022-08-05T13:58:50;43.60;21.80
19192;DHT22;9728;48.194;16.346;2022-08-05T14:03:54;43.60;21.80
19192;DHT22;9728;48.194;16.346;2022-08-05T14:09:15;43.70;21.70
19192;DHT22;9728;48.194;16.346;2022-08-05T14:14:24;43.70;21.70
19192;DHT22;9728;48.194;16.346;2022-08-05T14:19:34;43.70;21.60
19192;DHT22;9728;48.194;16.346;2022-08-05T14:24:57;43.70;21.50
19192;DHT22;9728;48.194;16.346;2022-08-05T14:30:03;43.70;21.50
19192;DHT22;9728;48.194;16.346;2022-08-05T14:35:21;43.70;21.40
19192;DHT22;9728;48.194;16.346;2022-08-05T14:40:45;43.70;21.40
19192;DHT22;9728;48.194;16.346;2022-08-05T14:45:50;43.70;21.50
19192;DHT22;9728;48.194;16.346;2022-08-05T14:50:54;43.60;21.40
19192;DHT22;9728;48.194;16.346;2022-08-05T14:55:57;43.50;21.30
19192;DHT22;9728;48.194;16.346;2022-08-05T15:01:02;43.40;21.40
19192;DHT22;9728;48.194;16.346;2022-08-05T15:06:17;43.20;21.30
19192;DHT22;9728;48.194;16.346;2022-08-05T15:11:29;43.10;21.50
19192;DHT22;9728;48.194;16.346;2022-08-05T15:16:54;42.90;21.50
19192;DHT22;9728;48.194;16.346;2022-08-05T15:21:57;42.70;21.50
19192;DHT22;9728;48.194;16.346;2022-08-05T15:27:02;42.60;21.60
19192;DHT22;9728;48.194;16.346;2022-08-05T15:32:11;42.40;21.80
19192;DHT22;9728;48.194;16.346;2022-08-05T15:37:17;42.20;21.80
19192;DHT22;9728;48.194;16.346;2022-08-05T15:42:40;42.10;22.00
19192;DHT22;9728;48.194;16.346;2022-08-05T15:48:01;41.90;22.10
19192;DHT22;9728;48.194;16.346;2022-08-05T15:53:05;41.70;22.10
19192;DHT22;9728;48.194;16.346;2022-08-05T15:58:13;41.50;22.30
19192;DHT22;9728;48.194;16.346;2022-08-05T16:03:19;41.40;22.40
19192;DHT22;9728;48.194;16.346;2022-08-05T16:08:22;41.30;22.50
19192;DHT22;9728;48.194;16.346;2022-08-05T16:13:31;41.10;22.60
19192;DHT22;9728;48.194;16.346;2022-08-05T16:18:37;41.10;22.70
19192;DHT22;9728;48.194;16.346;2022-08-05T16:23:53;40.90;22.80
19192;DHT22;9728;48.194;16.346;2022-08-05T16:29:03;40.80;22.90
19192;DHT22;9728;48.194;16.346;2022-08-05T16:34:10;40.70;23.00
19192;DHT22;9728;48.194;16.346;2022-08-05T16:39:15;40.60;23.10
19192;DHT22;9728;48.194;16.346;2022-08-05T16:44:21;40.50;23.20
19192;DHT22;9728;48.194;16.346;2022-08-05T16:49:28;40.40;23.30
19192;DHT22;9728;48.194;16.346;2022-08-05T16:54:31;40.40;23.40
19192;DHT22;9728;48.194;16.346;2022-08-05T16:59:34;40.30;23.50
19192;DHT22;9728;48.194;16.346;2022-08-05T17:04:59;40.20;23.50
19192;DHT22;9728;48.194;16.346;2022-08-05T17:10:03;40.20;23.70
19192;DHT22;9728;48.194;16.346;2022-08-05T17:15:07;40.00;23.70
19192;DHT22;9728;48.194;16.346;2022-08-05T17:20:17;40.00;23.70
19192;DHT22;9728;48.194;16.346;2022-08-05T17:25:21;39.90;23.80
19192;DHT22;9728;48.194;16.346;2022-08-05T17:30:41;39.80;23.80
19192;DHT22;9728;48.194;16.346;2022-08-05T17:35:54;39.80;23.90
19192;DHT22;9728;48.194;16.346;2022-08-05T17:41:11;39.70;24.00
19192;DHT22;9728;48.194;16.346;2022-08-05T17:46:34;39.60;24.10
19192;DHT22;9728;48.194;16.346;2022-08-05T17:51:39;39.60;24.20
19192;DHT22;9728;48.194;16.346;2022-08-05T17:56:42;39.50;24.30
19192;DHT22;9728;48.194;16.346;2022-08-05T18:01:49;39.40;24.30
19192;DHT22;9728;48.194;16.346;2022-08-05T18:06:54;39.40;24.50
19192;DHT22;9728;48.194;16.346;2022-08-05T18:12:02;39.30;24.50
19192;DHT22;9728;48.194;16.346;2022-08-05T18:17:05;39.20;24.70
19192;DHT22;9728;48.194;16.346;2022-08-05T18:22:30;39.10;24.70
19192;DHT22;9728;48.194;16.346;2022-08-05T18:27:53;39.00;24.80
19192;DHT22;9728;48.194;16.346;2022-08-05T18:32:57;39.00;24.90
19192;DHT22;9728;48.194;16.346;2022-08-05T18:38:03;38.90;25.00
19192;DHT22;9728;48.194;16.346;2022-08-05T18:43:06;38.90;25.10
19192;DHT22;9728;48.194;16.346;2022-08-05T18:48:18;38.80;25.20
19192;DHT22;9728;48.194;16.346;2022-08-05T18:53:35;38.70;25.30
19192;DHT22;9728;48.194;16.346;2022-08-05T18:58:46;38.60;25.50
19192;DHT22;9728;48.194;16.346;2022-08-05T19:03:54;38.50;25.50
19192;DHT22;9728;48.194;16.346;2022-08-05T19:08:59;38.40;25.60
19192;DHT22;9728;48.194;16.346;2022-08-05T19:14:04;38.30;25.90
19192;DHT22;9728;48.194;16.346;2022-08-05T19:19:28;38.30;26.10
19192;DHT22;9728;48.194;16.346;2022-08-05T19:24:33;38.10;26.20
19192;DHT22;9728;48.194;16.346;2022-08-05T19:29:37;38.10;26.70
19192;DHT22;9728;48.194;16.346;2022-08-05T19:34:43;38.00;26.90
19192;DHT22;9728;48.194;16.346;2022-08-05T19:39:58;37.90;27.80
19192;DHT22;9728;48.194;16.346;2022-08-05T19:45:03;37.80;27.60
19192;DHT22;9728;48.194;16.346;2022-08-05T19:50:07;37.70;27.70
19192;DHT22;9728;48.194;16.346;2022-08-05T19:55:14;37.60;27.70
19192;DHT22;9728;48.194;16.346;2022-08-05T20:00:38;37.50;28.00
19192;DHT22;9728;48.194;16.346;2022-08-05T20:05:42;37.40;28.30
19192;DHT22;9728;48.194;16.346;2022-08-05T20:10:54;37.30;28.40
19192;DHT22;9728;48.194;16.346;2022-08-05T20:15:59;37.20;28.40
19192;DHT22;9728;48.194;16.346;2022-08-05T20:21:05;37.10;28.30
19192;DHT22;9728;48.194;16.346;2022-08-05T20:26:11;37.00;28.40
19192;DHT22;9728;48.194;16.346;2022-08-05T20:31:18;36.90;28.50
19192;DHT22;9728;48.194;16.346;2022-08-05T20:36:23;36.80;28.50
19192;DHT22;9728;48.194;16.346;2022-08-05T20:41:29;36.60;28.70
19192;DHT22;9728;48.194;16.346;2022-08-05T20:46:46;36.60;29.00
19192;DHT22;9728;48.194;16.346;2022-08-05T20:51:49;36.50;28.80
19192;DHT22;9728;48.194;16.346;2022-08-05T20:56:56;36.40;28.90
19192;DHT22;9728;48.194;16.346;2022-08-05T21:01:59;36.30;29.10
19192;DHT22;9728;48.194;16.346;2022-08-05T21:07:04;36.30;29.10
19192;DHT22;9728;48.194;16.346;2022-08-05T21:12:11;36.20;29.20
19192;DHT22;9728;48.194;16.346;2022-08-05T21:17:17;36.10;29.30
19192;DHT22;9728;48.194;16.346;2022-08-05T21:22:22;36.00;29.50
19192;DHT22;9728;48.194;16.346;2022-08-05T21:27:28;35.90;29.40
19192;DHT22;9728;48.194;16.346;2022-08-05T21:32:39;35.80;29.70
19192;DHT22;9728;48.194;16.346;2022-08-05T21:37:44;35.80;29.70
19192;DHT22;9728;48.194;16.346;2022-08-05T21:42:55;35.70;29.90
19192;DHT22;9728;48.194;16.346;2022-08-05T21:48:00;35.60;29.90
19192;DHT22;9728;48.194;16.346;2022-08-05T21:53:08;35.60;30.00
19192;DHT22;9728;48.194;16.346;2022-08-05T21:58:20;35.60;30.10
19192;DHT22;9728;48.194;16.346;2022-08-05T22:03:31;35.50;30.30
19192;DHT22;9728;48.194;16.346;2022-08-05T22:08:54;35.40;30.30
19192;DHT22;9728;48.194;16.346;2022-08-05T22:13:59;35.30;30.30
19192;DHT22;9728;48.194;16.346;2022-08-05T22:19:23;35.20;30.40
19192;DHT22;9728;48.194;16.346;2022-08-05T22:24:46;35.20;30.40
19192;DHT22;9728;48.194;16.346;2022-08-05T22:30:23;35.20;30.50
19192;DHT22;9728;48.194;16.346;2022-08-05T22:35:36;35.20;30.50
19192;DHT22;9728;48.194;16.346;2022-08-05T22:40:50;35.10;31.10
19192;DHT22;9728;48.194;16.346;2022-08-05T22:45:57;35.10;30.40
19192;DHT22;9728;48.194;16.346;2022-08-05T22:51:01;35.10;30.50
19192;DHT22;9728;48.194;16.346;2022-08-05T22:56:08;35.10;30.50
19192;DHT22;9728;48.194;16.346;2022-08-05T23:01:15;35.00;30.50
19192;DHT22;9728;48.194;16.346;2022-08-05T23:06:21;35.00;30.50
19192;DHT22;9728;48.194;16.346;2022-08-05T23:11:27;35.00;30.50
19192;DHT22;9728;48.194;16.346;2022-08-05T23:16:33;35.00;30.50
19192;DHT22;9728;48.194;16.346;2022-08-05T23:21:54;35.00;30.60
19192;DHT22;9728;48.194;16.346;2022-08-05T23:26:57;35.00;30.80
19192;DHT22;9728;48.194;16.346;2022-08-05T23:32:03;35.00;30.90
19192;DHT22;9728;48.194;16.346;2022-08-05T23:37:06;35.00;31.50
19192;DHT22;9728;48.194;16.346;2022-08-05T23:42:12;35.00;31.40
19192;DHT22;9728;48.194;16.346;2022-08-05T23:47:25;34.90;31.70
19192;DHT22;9728;48.194;16.346;2022-08-05T23:52:34;35.00;32.00
19192;DHT22;9728;48.194;16.346;2022-08-05T23:57:51;35.00;31.70
